CYPR

Prince Rupert Airport

Prince Rupert, , Canada
METAR CYPR 201500Z AUTO 07005KT 9SM CLR M04/M05 A3025 RMK SLP246
Observed Flight Rules
Feb-20 @ 15:00 UTC (22 hours ago) Visual Flight Rules
Wind Visibility Clouds
70° at 5 knots 9 miles
  • Clear skies
Temperatures Readings
Current -4°C / 25°F
Dewpoint -5°C / 23°F
Humidity 93%
Altimeter 30.25" Hg
Pressure 1024.6 hPa
Elevation 34
METAR CYPR 201500Z AUTO 07005KT 9SM CLR M04/M05 A3025 RMK SLP246
Observed Flight Rules
Feb-20 @ 15:00 UTC
(22 hours ago)
VFR
Wind Visibility
70° at 5 knots 9 miles
Clouds
  • Clear skies
Temperature Dewpoint
-4°C / 25°F -5°C / 23°F
Humidity Altimeter Pressure
93% 30.25" Hg 1024.6 hPa